Saturday, October 21, 2017, 3:36 PM EDT
Back to Local

KAFN, Jaffrey Muni-silver Ranch

Location: Jaffrey, NH, United States Lat: 42.8
Local Time: 3:36 PM EDT (19:36 GMT) Lon: -72
Time Zone: US/Eastern Elev: 1040 ft

Show me the last for .
Show Decoded

2017-10-21 14:52 METAR KAFN 211852Z AUTO 29005KT 10SM CLR 23/05 A3028 RMK AO2 SLP257 T02330050 =
2017-10-21 13:52 METAR KAFN 211752Z AUTO 31006KT 10SM CLR 23/04 A3028 RMK AO2 SLP260 T02280039
                 10228 20061 58006 =
2017-10-21 12:52 METAR KAFN 211652Z AUTO 28007KT 10SM CLR 22/01 A3029 RMK AO2 SLP264 T02170006 =
2017-10-21 11:52 METAR KAFN 211552Z AUTO VRB06KT 10SM CLR 20/05 A3030 RMK AO2 SLP267 T02000050 =
2017-10-21 10:52 METAR KAFN 211452Z AUTO 16005KT 10SM CLR 18/06 A3030 RMK AO2 SLP267 T01780061
                 51007 =
2017-10-21 09:52 METAR KAFN 211352Z AUTO 18007KT 10SM CLR 14/04 A3030 RMK AO2 SLP266 T01440039 =
2017-10-21 08:52 METAR KAFN 211252Z AUTO 18007KT 10SM CLR 11/05 A3030 RMK AO2 SLP266 T01110050 =
2017-10-21 07:52 METAR KAFN 211152Z AUTO 17005KT 10SM CLR 06/04 A3028 RMK AO2 SLP263 T00610039
                 10072 20044 53013 =
2017-10-21 06:52 METAR KAFN 211052Z AUTO 18005KT 10SM CLR 04/03 A3026 RMK AO2 SLP255 T00440033 =
2017-10-21 05:52 METAR KAFN 210952Z AUTO 15003KT 10SM CLR 05/04 A3025 RMK AO2 SLP252 T00500039 =
2017-10-21 04:52 METAR KAFN 210852Z AUTO 17004KT 10SM CLR 05/04 A3024 RMK AO2 SLP248 T00500039
                 51009 =
2017-10-21 03:52 METAR KAFN 210752Z AUTO 16004KT 10SM CLR 06/04 A3024 RMK AO2 SLP246 T00560039 =
2017-10-21 02:52 METAR KAFN 210652Z AUTO 18003KT 10SM CLR 06/04 A3023 RMK AO2 SLP243 T00610044 =
2017-10-21 01:52 METAR KAFN 210552Z AUTO 18003KT 10SM CLR 06/04 A3021 RMK AO2 SLP238 T00610044
                 10161 20061 51013 =
2017-10-21 00:52 METAR KAFN 210452Z AUTO 00000KT 10SM CLR 07/04 A3020 RMK AO2 SLP235 T00670044
                 401940067 =
2017-10-20 23:52 METAR KAFN 210352Z AUTO 00000KT 10SM CLR 07/04 A3019 RMK AO2 SLP232 T00720044 =
2017-10-20 22:52 METAR KAFN 210252Z AUTO 00000KT 10SM CLR 10/04 A3018 RMK AO2 SLP225 T01000039
                 53018 =
2017-10-20 21:52 METAR KAFN 210152Z AUTO 00000KT 10SM CLR 13/03 A3015 RMK AO2 SLP214 T01280033 =
2017-10-20 20:52 METAR KAFN 210052Z AUTO 01003KT 10SM CLR 14/02 A3014 RMK AO2 SLP211 T01390022 =
2017-10-20 19:52 METAR KAFN 202352Z AUTO VRB03KT 10SM CLR 15/02 A3012 RMK AO2 SLP205 T01500022
                 10194 20150 51017 =
2017-10-20 18:52 METAR KAFN 202252Z AUTO VRB05G15KT 10SM CLR 17/01 A3010 RMK AO2 SLP198 T01720006
                 =
2017-10-20 17:52 METAR KAFN 202152Z AUTO VRB06KT 10SM CLR 17/01 A3009 RMK AO2 SLP192 T01720011 =
2017-10-20 16:52 METAR KAFN 202052Z AUTO 31008G19KT 10SM CLR 19/01 A3007 RMK AO2 SLP185 T01890006
                 51007 =
2017-10-20 15:52 METAR KAFN 201952Z AUTO VRB06KT 10SM CLR 19/01 A3006 RMK AO2 SLP183 T01940006 =

Support USWX by starting your Amazon purchase here.